Wetterdaten: Woche 13.01.14 - 19.01.14 (KW3)
Datum Zeit Temp. A. Feuchte A. Luftdruck Regen Wind Richtung Taupunkt Windchill Windben
13.01.2014 00:00 -2,1 C 82 % 1021,7 hPa 0,0 l/m 0,0 km/h N -4,8 C -2,1 C 0,4 km/h
13.01.2014 01:00 -2,8 C 84 % 1021,1 hPa 0,0 l/m 0,0 km/h N -5,1 C -2,8 C 0,0 km/h
13.01.2014 02:00 -2,8 C 87 % 1020,7 hPa 0,0 l/m 0,1 km/h N -4,6 C -2,8 C 2,0 km/h
13.01.2014 03:00 -3,2 C 86 % 1020,1 hPa 0,0 l/m 0,1 km/h N -5,2 C -3,2 C 1,6 km/h
13.01.2014 04:00 -3,6 C 86 % 1019,8 hPa 0,0 l/m 0,0 km/h N -5,6 C -3,6 C 0,0 km/h
13.01.2014 05:00 -4,5 C 86 % 1019,3 hPa 0,0 l/m 0,0 km/h N -6,5 C -4,5 C 0,0 km/h
13.01.2014 06:00 -5,0 C 86 % 1019,4 hPa 0,0 l/m 0,0 km/h N -6,9 C -5,0 C 0,0 km/h
13.01.2014 07:00 -5,3 C 86 % 1019,7 hPa 0,0 l/m 0,0 km/h N -7,3 C -5,3 C 0,0 km/h
13.01.2014 08:00 -5,4 C 86 % 1019,6 hPa 0,0 l/m 0,0 km/h N -7,4 C -5,4 C 0,0 km/h
13.01.2014 09:00 -1,7 C 82 % 1019,2 hPa 0,0 l/m 0,0 km/h N -4,3 C -1,7 C 0,4 km/h
13.01.2014 10:00 0,9 C 83 % 1018,7 hPa 0,0 l/m 0,6 km/h N -1,6 C 0,9 C 3,2 km/h
13.01.2014 11:00 2,9 C 79 % 1018,3 hPa 0,0 l/m 0,4 km/h N -0,5 C 2,9 C 2,8 km/h
13.01.2014 12:00 3,9 C 72 % 1017,5 hPa 0,0 l/m 0,4 km/h N -0,8 C 3,9 C 4,8 km/h
13.01.2014 13:00 4,5 C 70 % 1016,5 hPa 0,0 l/m 0,8 km/h N -0,6 C 4,5 C 4,8 km/h
13.01.2014 14:00 4,9 C 70 % 1016,0 hPa 0,0 l/m 1,3 km/h N -0,2 C 4,9 C 6,4 km/h
13.01.2014 15:00 4,5 C 73 % 1015,6 hPa 0,0 l/m 1,9 km/h N 0,2 C 4,5 C 6,8 km/h
13.01.2014 16:00 3,5 C 73 % 1015,8 hPa 0,0 l/m 0,0 km/h N -0,8 C 3,5 C 1,2 km/h
13.01.2014 17:00 0,9 C 76 % 1015,8 hPa 0,0 l/m 0,0 km/h N -2,9 C 0,9 C 0,0 km/h
13.01.2014 18:00 -0,9 C 81 % 1015,9 hPa 0,0 l/m 0,1 km/h N -3,8 C -0,9 C 0,8 km/h
13.01.2014 19:00 -1,7 C 84 % 1016,0 hPa 0,0 l/m 0,0 km/h N -4,1 C -1,7 C 0,4 km/h
13.01.2014 20:00 -2,0 C 85 % 1015,8 hPa 0,0 l/m 0,0 km/h N -4,3 C -2,0 C 0,0 km/h
13.01.2014 21:00 -2,0 C 86 % 1014,8 hPa 0,0 l/m 0,0 km/h N -4,0 C -2,0 C 0,4 km/h
13.01.2014 22:00 -1,6 C 86 % 1014,0 hPa 0,0 l/m 0,0 km/h N -3,7 C -1,6 C 0,8 km/h
13.01.2014 23:00 -0,6 C 85 % 1013,5 hPa 0,0 l/m 0,0 km/h N -2,8 C -0,6 C 1,2 km/h
14.01.2014 00:00 -0,1 C 84 % 1012,8 hPa 0,0 l/m 0,1 km/h N -2,4 C -0,1 C 1,2 km/h
14.01.2014 01:00 0,5 C 84 % 1012,1 hPa 0,0 l/m 0,0 km/h N -1,9 C 0,5 C 0,4 km/h
14.01.2014 02:00 0,8 C 83 % 1011,9 hPa 0,0 l/m 0,0 km/h N -1,8 C 0,8 C 0,0 km/h
14.01.2014 03:00 0,9 C 83 % 1011,6 hPa 0,0 l/m 0,0 km/h N -1,6 C 0,9 C 0,0 km/h
14.01.2014 04:00 1,2 C 83 % 1011,2 hPa 0,0 l/m 0,3 km/h N -1,3 C 1,2 C 3,2 km/h
14.01.2014 05:00 1,3 C 84 % 1010,7 hPa 0,0 l/m 0,1 km/h N -1,1 C 1,3 C 1,2 km/h
14.01.2014 06:00 1,3 C 84 % 1010,5 hPa 0,0 l/m 0,1 km/h N -1,1 C 1,3 C 2,0 km/h
14.01.2014 07:00 1,3 C 84 % 1010,3 hPa 0,0 l/m 0,1 km/h N -1,1 C 1,3 C 1,6 km/h
14.01.2014 08:00 1,3 C 84 % 1009,8 hPa 0,0 l/m 0,7 km/h N -1,1 C 1,3 C 4,8 km/h
14.01.2014 09:00 1,5 C 84 % 1009,2 hPa 0,0 l/m 1,3 km/h N -0,9 C 1,5 C 5,6 km/h
14.01.2014 10:00 1,7 C 84 % 1009,0 hPa 0,0 l/m 0,8 km/h N -0,7 C 1,7 C 5,2 km/h
14.01.2014 11:00 1,7 C 84 % 1008,2 hPa 0,0 l/m 2,1 km/h N -0,7 C 1,7 C 6,8 km/h
14.01.2014 12:00 1,9 C 84 % 1007,2 hPa 0,0 l/m 2,6 km/h N -0,5 C 1,9 C 6,8 km/h
14.01.2014 13:00 2,4 C 84 % 1006,5 hPa 0,0 l/m 0,9 km/h N -0,0 C 2,4 C 4,4 km/h
14.01.2014 14:00 3,0 C 84 % 1006,0 hPa 0,0 l/m 0,4 km/h N 0,6 C 3,0 C 3,6 km/h
14.01.2014 15:00 3,6 C 83 % 1005,7 hPa 0,0 l/m 0,4 km/h N 1,1 C 3,6 C 2,8 km/h
14.01.2014 16:00 3,9 C 84 % 1005,7 hPa 0,0 l/m 0,3 km/h N 1,4 C 3,9 C 2,8 km/h
14.01.2014 17:00 4,1 C 83 % 1006,0 hPa 0,0 l/m 0,1 km/h N 1,5 C 4,1 C 3,2 km/h
14.01.2014 18:00 4,2 C 84 % 1006,1 hPa 0,0 l/m 0,1 km/h N 1,8 C 4,2 C 1,2 km/h
14.01.2014 19:00 4,1 C 85 % 1006,4 hPa 0,0 l/m 0,4 km/h N 1,7 C 4,1 C 3,6 km/h
14.01.2014 20:00 4,1 C 85 % 1006,6 hPa 0,0 l/m 0,4 km/h N 1,8 C 4,1 C 4,0 km/h
14.01.2014 21:00 4,1 C 85 % 1007,5 hPa 0,0 l/m 3,3 km/h N 1,9 C 4,1 C 12,1 km/h
14.01.2014 22:00 4,0 C 84 % 1007,9 hPa 0,3 l/m 1,0 km/h N 1,5 C 4,0 C 6,8 km/h
14.01.2014 23:00 4,5 C 84 % 1007,8 hPa 0,3 l/m 1,9 km/h N 2,1 C 4,5 C 8,4 km/h
15.01.2014 00:00 5,2 C 81 % 1007,8 hPa 0,0 l/m 4,9 km/h N 2,1 C 5,1 C 17,7 km/h
15.01.2014 01:00 5,4 C 78 % 1008,2 hPa 0,0 l/m 6,4 km/h N 1,9 C 5,0 C 22,5 km/h
15.01.2014 02:00 5,5 C 77 % 1008,4 hPa 0,0 l/m 11,1 km/h N 1,7 C 1,9 C 31,0 km/h
15.01.2014 03:00 5,4 C 77 % 1008,3 hPa 0,0 l/m 12,3 km/h N 1,7 C 1,1 C 33,8 km/h
15.01.2014 04:00 5,2 C 78 % 1008,4 hPa 0,0 l/m 13,3 km/h N 1,6 C 0,2 C 37,0 km/h
15.01.2014 05:00 5,1 C 77 % 1008,9 hPa 0,0 l/m 10,3 km/h N 1,5 C 2,0 C 28,6 km/h
15.01.2014 06:00 5,1 C 76 % 1009,7 hPa 0,0 l/m 7,0 km/h N 1,3 C 4,3 C 20,1 km/h
15.01.2014 07:00 5,1 C 76 % 1010,3 hPa 0,0 l/m 9,6 km/h N 1,3 C 2,6 C 25,8 km/h
15.01.2014 08:00 5,3 C 75 % 1010,9 hPa 0,0 l/m 12,4 km/h N 1,3 C 1,0 C 28,6 km/h
15.01.2014 09:00 5,9 C 74 % 1011,3 hPa 0,0 l/m 12,9 km/h N 1,5 C 1,3 C 32,2 km/h
15.01.2014 10:00 6,9 C 70 % 1011,7 hPa 0,0 l/m 9,3 km/h N 1,8 C 4,7 C 24,9 km/h
15.01.2014 11:00 7,6 C 67 % 1011,8 hPa 0,0 l/m 11,5 km/h N 1,9 C 4,1 C 26,6 km/h
15.01.2014 12:00 7,8 C 64 % 1011,8 hPa 0,0 l/m 11,6 km/h N 1,4 C 4,2 C 28,6 km/h
15.01.2014 13:00 7,8 C 63 % 1011,9 hPa 0,0 l/m 10,9 km/h N 1,2 C 4,6 C 31,0 km/h
15.01.2014 14:00 7,7 C 64 % 1012,3 hPa 0,0 l/m 7,0 km/h N 1,2 C 6,8 C 19,7 km/h
15.01.2014 15:00 6,9 C 66 % 1012,8 hPa 0,0 l/m 5,8 km/h N 0,9 C 6,6 C 18,9 km/h
15.01.2014 16:00 5,7 C 68 % 1013,3 hPa 0,0 l/m 2,5 km/h N 0,3 C 5,7 C 11,7 km/h
15.01.2014 17:00 4,6 C 71 % 1013,9 hPa 0,0 l/m 1,5 km/h N -0,2 C 4,6 C 7,2 km/h
15.01.2014 18:00 3,2 C 73 % 1014,6 hPa 0,0 l/m 0,2 km/h N -1,3 C 3,2 C 2,0 km/h
15.01.2014 19:00 1,0 C 75 % 1014,9 hPa 0,0 l/m 0,0 km/h N -2,9 C 1,0 C 0,8 km/h
15.01.2014 20:00 -0,4 C 80 % 1014,8 hPa 0,0 l/m 0,0 km/h N -3,4 C -0,4 C 0,8 km/h
15.01.2014 21:00 -1,2 C 83 % 1014,8 hPa 0,0 l/m 0,0 km/h N -3,8 C -1,2 C 0,4 km/h
15.01.2014 22:00 -1,7 C 85 % 1014,5 hPa 0,0 l/m 0,2 km/h N -3,9 C -1,7 C 1,2 km/h
15.01.2014 23:00 -1,9 C 85 % 1014,3 hPa 0,0 l/m 0,0 km/h N -4,1 C -1,9 C 0,0 km/h
16.01.2014 00:00 -2,2 C 88 % 1013,8 hPa 0,0 l/m 0,1 km/h N -4,0 C -2,2 C 1,6 km/h
16.01.2014 01:00 -2,5 C 86 % 1013,8 hPa 0,0 l/m 0,0 km/h N -4,6 C -2,5 C 0,4 km/h
16.01.2014 02:00 -3,1 C 86 % 1013,8 hPa 0,0 l/m 0,0 km/h N -5,1 C -3,1 C 0,0 km/h
16.01.2014 03:00 -3,6 C 86 % 1013,5 hPa 0,0 l/m 0,0 km/h N -5,6 C -3,6 C 0,4 km/h
16.01.2014 04:00 -3,7 C 86 % 1013,4 hPa 0,0 l/m 0,0 km/h N -5,7 C -3,7 C 0,0 km/h
16.01.2014 05:00 -3,6 C 85 % 1013,2 hPa 0,0 l/m 0,0 km/h N -5,7 C -3,6 C 0,4 km/h
16.01.2014 06:00 -3,2 C 85 % 1013,1 hPa 0,0 l/m 0,0 km/h N -5,4 C -3,2 C 0,0 km/h
16.01.2014 07:00 -3,6 C 85 % 1013,0 hPa 0,0 l/m 0,0 km/h N -5,7 C -3,6 C 0,4 km/h
16.01.2014 08:00 -3,3 C 84 % 1012,9 hPa 0,0 l/m 0,0 km/h N -5,6 C -3,3 C 0,0 km/h
16.01.2014 09:00 -1,0 C 82 % 1012,7 hPa 0,0 l/m 0,0 km/h N -3,6 C -1,0 C 0,4 km/h
16.01.2014 10:00 1,7 C 83 % 1012,3 hPa 0,0 l/m 0,5 km/h N -0,9 C 1,7 C 3,6 km/h
16.01.2014 11:00 2,5 C 84 % 1012,0 hPa 0,0 l/m 0,2 km/h N -0,0 C 2,5 C 3,2 km/h
16.01.2014 12:00 3,1 C 85 % 1011,1 hPa 0,0 l/m 0,2 km/h N 0,9 C 3,1 C 3,2 km/h
16.01.2014 13:00 3,4 C 85 % 1010,1 hPa 0,0 l/m 0,7 km/h N 1,2 C 3,4 C 4,4 km/h
16.01.2014 14:00 5,3 C 85 % 1009,7 hPa 0,0 l/m 0,1 km/h N 3,0 C 5,3 C 1,6 km/h
16.01.2014 15:00 5,9 C 84 % 1009,4 hPa 0,0 l/m 0,0 km/h N 3,3 C 5,9 C 0,0 km/h
16.01.2014 16:00 4,7 C 82 % 1009,1 hPa 0,0 l/m 0,0 km/h N 1,9 C 4,7 C 0,4 km/h
16.01.2014 17:00 2,8 C 83 % 1008,9 hPa 0,0 l/m 0,0 km/h N 0,1 C 2,8 C 0,0 km/h
16.01.2014 18:00 1,5 C 84 % 1008,6 hPa 0,0 l/m 0,0 km/h N -0,9 C 1,5 C 0,0 km/h
16.01.2014 19:00 0,5 C 85 % 1008,4 hPa 0,0 l/m 0,0 km/h N -1,7 C 0,5 C 0,0 km/h
16.01.2014 20:00 -0,0 C 86 % 1007,8 hPa 0,0 l/m 0,0 km/h N -2,1 C -0,0 C 0,0 km/h
16.01.2014 21:00 -0,1 C 85 % 1007,3 hPa 0,0 l/m 0,0 km/h N -2,3 C -0,1 C 0,8 km/h
16.01.2014 22:00 -0,1 C 85 % 1006,9 hPa 0,0 l/m 0,0 km/h N -2,3 C -0,1 C 0,0 km/h
16.01.2014 23:00 -0,3 C 85 % 1006,5 hPa 0,0 l/m 0,0 km/h N -2,5 C -0,3 C 0,0 km/h
17.01.2014 00:00 -0,3 C 84 % 1006,4 hPa 0,0 l/m 0,0 km/h N -2,7 C -0,3 C 0,8 km/h
17.01.2014 01:00 1,2 C 82 % 1006,8 hPa 0,0 l/m 0,0 km/h N -1,6 C 1,2 C 0,4 km/h
17.01.2014 02:00 2,4 C 81 % 1007,0 hPa 0,0 l/m 0,2 km/h N -0,6 C 2,4 C 1,6 km/h
17.01.2014 03:00 3,1 C 81 % 1007,6 hPa 0,0 l/m 2,0 km/h N 0,2 C 3,1 C 8,4 km/h
17.01.2014 04:00 3,2 C 81 % 1008,2 hPa 0,0 l/m 2,1 km/h N 0,3 C 3,2 C 7,2 km/h
17.01.2014 05:00 3,2 C 82 % 1008,2 hPa 0,0 l/m 1,6 km/h N 0,3 C 3,2 C 8,8 km/h
17.01.2014 06:00 2,9 C 83 % 1008,5 hPa 0,0 l/m 0,3 km/h N 0,3 C 2,9 C 4,8 km/h
17.01.2014 07:00 2,8 C 83 % 1009,1 hPa 0,0 l/m 0,7 km/h N 0,2 C 2,8 C 6,0 km/h
17.01.2014 08:00 2,8 C 83 % 1009,3 hPa 0,0 l/m 0,8 km/h N 0,2 C 2,8 C 3,2 km/h
17.01.2014 09:00 3,2 C 84 % 1009,1 hPa 0,0 l/m 2,2 km/h N 0,7 C 3,2 C 7,6 km/h
17.01.2014 10:00 3,8 C 85 % 1008,9 hPa 0,0 l/m 2,1 km/h N 1,4 C 3,8 C 6,8 km/h
17.01.2014 11:00 3,9 C 86 % 1008,6 hPa 0,0 l/m 2,7 km/h N 1,8 C 3,9 C 8,0 km/h
17.01.2014 12:00 4,2 C 85 % 1008,1 hPa 0,0 l/m 2,6 km/h N 1,9 C 4,2 C 7,6 km/h
17.01.2014 13:00 4,2 C 84 % 1007,5 hPa 0,0 l/m 2,1 km/h N 1,7 C 4,2 C 8,4 km/h
17.01.2014 14:00 4,2 C 85 % 1007,3 hPa 0,0 l/m 1,4 km/h N 1,9 C 4,2 C 6,8 km/h
17.01.2014 15:00 4,2 C 85 % 1007,3 hPa 0,0 l/m 0,3 km/h N 1,9 C 4,2 C 2,8 km/h
17.01.2014 16:00 4,0 C 85 % 1007,5 hPa 0,0 l/m 0,0 km/h N 1,7 C 4,0 C 0,4 km/h
17.01.2014 17:00 3,8 C 85 % 1007,5 hPa 0,0 l/m 0,1 km/h N 1,5 C 3,8 C 0,8 km/h
17.01.2014 18:00 3,8 C 86 % 1007,5 hPa 0,0 l/m 0,0 km/h N 1,7 C 3,8 C 0,8 km/h
17.01.2014 19:00 3,7 C 86 % 1008,0 hPa 0,0 l/m 0,0 km/h N 1,6 C 3,7 C 0,0 km/h
17.01.2014 20:00 4,2 C 86 % 1008,9 hPa 0,0 l/m 4,1 km/h N 2,0 C 4,0 C 10,1 km/h
17.01.2014 21:00 4,2 C 86 % 1009,5 hPa 0,0 l/m 6,4 km/h N 2,0 C 3,5 C 16,9 km/h
17.01.2014 22:00 4,0 C 86 % 1009,5 hPa 0,0 l/m 1,7 km/h N 1,8 C 4,0 C 6,0 km/h
17.01.2014 23:00 3,2 C 85 % 1009,8 hPa 0,0 l/m 0,0 km/h N 0,9 C 3,2 C 1,2 km/h
18.01.2014 00:00 2,3 C 86 % 1010,1 hPa 0,0 l/m 0,0 km/h N 0,2 C 2,3 C 0,0 km/h
18.01.2014 01:00 2,2 C 86 % 1010,2 hPa 0,0 l/m 0,1 km/h N -0,0 C 2,2 C 1,2 km/h
18.01.2014 02:00 2,6 C 85 % 1010,6 hPa 0,0 l/m 0,5 km/h N 0,4 C 2,6 C 4,0 km/h
18.01.2014 03:00 2,4 C 85 % 1010,7 hPa 0,0 l/m 0,8 km/h N 0,2 C 2,4 C 4,8 km/h
18.01.2014 04:00 2,6 C 84 % 1010,5 hPa 0,0 l/m 0,2 km/h N 0,2 C 2,6 C 3,6 km/h
18.01.2014 05:00 2,5 C 84 % 1010,5 hPa 0,0 l/m 0,1 km/h N 0,1 C 2,5 C 2,4 km/h
18.01.2014 06:00 2,5 C 84 % 1010,4 hPa 0,0 l/m 0,0 km/h N 0,0 C 2,5 C 1,2 km/h
18.01.2014 07:00 2,4 C 84 % 1010,4 hPa 0,0 l/m 0,0 km/h N -0,0 C 2,4 C 0,0 km/h
18.01.2014 08:00 2,5 C 83 % 1010,7 hPa 0,0 l/m 0,0 km/h N -0,1 C 2,5 C 0,4 km/h
18.01.2014 09:00 2,7 C 83 % 1010,7 hPa 0,0 l/m 0,0 km/h N 0,1 C 2,7 C 1,2 km/h
18.01.2014 10:00 3,0 C 82 % 1010,4 hPa 0,0 l/m 0,2 km/h N 0,3 C 3,0 C 3,2 km/h
18.01.2014 11:00 3,3 C 82 % 1009,8 hPa 0,0 l/m 0,7 km/h N 0,5 C 3,3 C 5,2 km/h
18.01.2014 12:00 3,4 C 81 % 1008,8 hPa 0,0 l/m 0,1 km/h N 0,5 C 3,4 C 2,8 km/h
18.01.2014 13:00 3,8 C 80 % 1008,0 hPa 0,0 l/m 1,1 km/h N 0,7 C 3,8 C 5,6 km/h
18.01.2014 14:00 4,0 C 80 % 1007,6 hPa 0,0 l/m 1,1 km/h N 0,9 C 4,0 C 5,6 km/h
18.01.2014 15:00 4,2 C 80 % 1007,3 hPa 0,0 l/m 0,7 km/h N 1,0 C 4,2 C 4,0 km/h
18.01.2014 16:00 4,2 C 80 % 1006,7 hPa 0,0 l/m 0,0 km/h N 1,0 C 4,2 C 0,0 km/h
18.01.2014 17:00 4,2 C 79 % 1006,3 hPa 0,3 l/m 0,1 km/h N 0,9 C 4,2 C 1,6 km/h
18.01.2014 18:00 4,3 C 79 % 1006,1 hPa 0,0 l/m 0,0 km/h N 1,0 C 4,3 C 0,0 km/h
18.01.2014 19:00 4,3 C 79 % 1005,8 hPa 0,0 l/m 0,0 km/h N 1,0 C 4,3 C 0,8 km/h
18.01.2014 20:00 4,6 C 79 % 1005,7 hPa 0,0 l/m 0,6 km/h N 1,1 C 4,6 C 4,0 km/h
18.01.2014 21:00 4,5 C 79 % 1005,6 hPa 0,0 l/m 0,8 km/h N 1,2 C 4,5 C 4,4 km/h
18.01.2014 22:00 4,4 C 78 % 1005,3 hPa 0,0 l/m 0,4 km/h N 0,9 C 4,4 C 3,2 km/h
18.01.2014 23:00 4,2 C 79 % 1004,9 hPa 0,0 l/m 0,1 km/h N 0,8 C 4,2 C 0,8 km/h
19.01.2014 00:00 3,8 C 79 % 1004,5 hPa 0,0 l/m 0,0 km/h N 0,5 C 3,8 C 0,0 km/h
19.01.2014 01:00 3,5 C 79 % 1004,2 hPa 0,0 l/m 0,1 km/h N 0,2 C 3,5 C 1,6 km/h
19.01.2014 02:00 3,0 C 79 % 1004,0 hPa 0,0 l/m 0,0 km/h N -0,3 C 3,0 C 0,8 km/h
19.01.2014 03:00 3,5 C 78 % 1003,6 hPa 0,0 l/m 0,0 km/h N 0,0 C 3,5 C 0,8 km/h
19.01.2014 04:00 4,0 C 78 % 1003,5 hPa 0,0 l/m 0,5 km/h N 0,4 C 4,0 C 4,0 km/h
19.01.2014 05:00 3,7 C 79 % 1003,2 hPa 0,0 l/m 0,1 km/h N 0,4 C 3,7 C 1,6 km/h
19.01.2014 06:00 2,2 C 80 % 1003,1 hPa 0,0 l/m 0,0 km/h N -0,9 C 2,2 C 0,8 km/h
19.01.2014 07:00 1,8 C 79 % 1003,2 hPa 0,0 l/m 0,2 km/h N -1,5 C 1,8 C 3,6 km/h
19.01.2014 08:00 2,0 C 78 % 1003,6 hPa 0,0 l/m 0,1 km/h N -1,4 C 2,0 C 3,2 km/h
19.01.2014 09:00 7,0 C 75 % 1003,4 hPa 0,0 l/m 2,6 km/h N 2,9 C 7,0 C 9,7 km/h
19.01.2014 10:00 9,3 C 79 % 1003,2 hPa 0,0 l/m 4,7 km/h N 5,9 C 9,3 C 15,3 km/h
19.01.2014 11:00 12,2 C 73 % 1002,5 hPa 0,0 l/m 7,8 km/h N 7,3 C 11,3 C 20,5 km/h
19.01.2014 12:00 13,3 C 68 % 1002,0 hPa 0,0 l/m 6,5 km/h N 7,4 C 12,8 C 18,5 km/h
19.01.2014 13:00 12,9 C 67 % 1001,9 hPa 0,0 l/m 8,2 km/h N 6,8 C 11,8 C 20,9 km/h
19.01.2014 14:00 12,3 C 70 % 1001,3 hPa 0,0 l/m 6,5 km/h N 7,0 C 11,7 C 18,9 km/h
19.01.2014 15:00 12,3 C 70 % 1001,6 hPa 0,0 l/m 9,1 km/h N 6,9 C 10,7 C 18,9 km/h
19.01.2014 16:00 12,1 C 70 % 1001,4 hPa 0,0 l/m 1,9 km/h N 6,7 C 12,1 C 10,9 km/h
19.01.2014 17:00 10,1 C 74 % 1001,5 hPa 0,0 l/m 0,2 km/h N 5,7 C 10,1 C 2,4 km/h
19.01.2014 18:00 8,5 C 81 % 1001,6 hPa 0,0 l/m 1,6 km/h N 5,4 C 8,5 C 7,6 km/h
19.01.2014 19:00 9,0 C 80 % 1001,4 hPa 0,0 l/m 0,7 km/h N 5,8 C 9,0 C 4,0 km/h
19.01.2014 20:00 7,5 C 81 % 1001,4 hPa 0,0 l/m 0,2 km/h N 4,5 C 7,5 C 4,0 km/h
19.01.2014 21:00 7,8 C 85 % 1001,3 hPa 0,0 l/m 1,7 km/h N 5,4 C 7,8 C 10,1 km/h
19.01.2014 22:00 7,7 C 85 % 1001,0 hPa 0,0 l/m 2,6 km/h N 5,3 C 7,7 C 10,5 km/h
19.01.2014 23:00 6,9 C 85 % 1000,9 hPa 0,0 l/m 0,2 km/h N 4,6 C 6,9 C 2,4 km/h
Min-Datum _ 13.01.14 15.01.14 19.01.14 - 13.01.14 - 13.01.14 13.01.14 13.01.14
_ Min-Zeit 08:15 12:15 23:45 - 00:00 - 08:00 08:00 00:00
Minimum _ -5,6 C 63 % 1000,7 hPa - 0,0 km/h - -7,6 C -5,6 C 0,0 km/h
Max-Datum _ 19.01.14 13.01.14 13.01.14 14.01.14 15.01.14 - 19.01.14 19.01.14 15.01.14
_ Max-Zeit 12:45 02:00 00:00 22:45 04:00 - 10:45 12:30 03:45
Maximum _ 14,1 C 92 % 1021,9 hPa 0,3 l/m 16,1 km/h
N
- 7,8 C 12,9 C 41,8 km/h
N
Durchschnitt _ 2,9 C 81 % 1009,7 hPa #0,8 l/m 1,7 km/h N -0,1 C 2,6 C 5,8 km/h